createdAt,value
2023-12-02T00:00:36.457Z,90.00
2023-12-02T00:03:24.480Z,90.90
2023-12-02T00:05:54.004Z,91.09
2023-12-02T00:08:24.181Z,91.75
2023-12-02T00:10:52.111Z,92.66
2023-12-02T00:13:21.310Z,93.44
2023-12-02T00:15:49.363Z,93.25
2023-12-02T00:18:17.416Z,92.68
2023-12-02T00:20:45.474Z,93.43
2023-12-02T00:23:13.606Z,94.11
2023-12-02T00:25:41.637Z,93.91
2023-12-02T00:28:09.602Z,93.55
2023-12-02T00:30:37.695Z,93.83
2023-12-02T00:33:05.754Z,93.21
2023-12-02T00:35:33.830Z,93.08
2023-12-02T00:38:01.839Z,92.80
2023-12-02T00:40:29.750Z,92.78
2023-12-02T00:42:57.715Z,92.88
2023-12-02T00:45:25.760Z,92.61
2023-12-02T00:47:54.158Z,93.86
2023-12-02T00:50:22.271Z,94.26
2023-12-02T00:52:50.245Z,94.44
2023-12-02T00:55:18.691Z,94.15
2023-12-02T00:57:46.636Z,93.99
2023-12-02T01:00:16.750Z,94.56
2023-12-02T01:02:44.820Z,94.59
2023-12-02T01:05:12.774Z,93.44
2023-12-02T01:07:40.838Z,93.33
2023-12-02T01:10:13.058Z,92.64
2023-12-02T01:12:41.297Z,93.23
2023-12-02T01:15:09.902Z,92.95
2023-12-02T01:17:37.922Z,92.58
2023-12-02T01:20:06.971Z,92.76
2023-12-02T01:22:34.965Z,92.06
2023-12-02T01:25:03.323Z,91.61
2023-12-02T01:27:31.475Z,92.52
2023-12-02T01:30:01.225Z,92.96
2023-12-02T01:32:29.396Z,94.63
2023-12-02T01:34:57.543Z,95.54
2023-12-02T01:37:25.600Z,95.80
2023-12-02T01:39:53.606Z,95.64
2023-12-02T01:42:21.644Z,95.15
2023-12-02T01:44:49.649Z,95.07
2023-12-02T01:47:17.575Z,94.80
2023-12-02T01:49:46.407Z,94.01
2023-12-02T01:52:14.889Z,94.50
2023-12-02T01:54:44.457Z,94.76
2023-12-02T01:57:12.701Z,94.91
2023-12-02T01:59:50.718Z,94.73
2023-12-02T02:02:18.804Z,94.30
2023-12-02T02:04:47.285Z,94.01
2023-12-02T02:07:15.474Z,93.55
2023-12-02T02:09:48.469Z,93.51
2023-12-02T02:12:17.670Z,93.25
2023-12-02T02:14:46.240Z,92.78
2023-12-02T02:17:14.345Z,92.57
2023-12-02T02:19:42.427Z,92.22
2023-12-02T02:22:10.485Z,92.09
2023-12-02T02:24:38.504Z,92.13
2023-12-02T02:27:06.581Z,92.15
2023-12-02T02:29:34.640Z,92.01
2023-12-02T02:32:03.016Z,92.07
2023-12-02T02:34:31.057Z,91.88
2023-12-02T02:36:59.061Z,91.40
2023-12-02T02:39:27.093Z,91.77
2023-12-02T02:41:55.752Z,91.46
2023-12-02T02:44:23.849Z,92.33
2023-12-02T02:46:52.154Z,93.41
2023-12-02T02:49:20.649Z,93.65
2023-12-02T02:51:48.637Z,93.68
2023-12-02T02:54:16.769Z,93.82
2023-12-02T02:56:45.045Z,94.06
2023-12-02T02:59:13.343Z,94.00
2023-12-02T03:01:47.013Z,94.13
2023-12-02T03:04:15.355Z,93.56
2023-12-02T03:06:43.524Z,94.30
2023-12-02T03:09:13.443Z,94.53
2023-12-02T03:11:41.782Z,94.16
2023-12-02T03:14:09.949Z,93.65
2023-12-02T03:16:37.923Z,93.50
2023-12-02T03:19:06.012Z,93.47
2023-12-02T03:21:34.305Z,93.25
2023-12-02T03:24:02.349Z,92.96
2023-12-02T03:26:30.388Z,92.23
2023-12-02T03:28:58.325Z,92.18
2023-12-02T03:31:26.351Z,91.86
2023-12-02T03:33:54.798Z,91.44
2023-12-02T03:36:22.926Z,90.90
2023-12-02T03:38:51.065Z,90.99
2023-12-02T03:41:19.381Z,91.02
2023-12-02T03:43:55.177Z,91.00
2023-12-02T03:46:28.753Z,90.91
2023-12-02T03:48:57.933Z,90.75
2023-12-02T03:51:26.242Z,90.65
2023-12-02T03:53:54.286Z,90.57
2023-12-02T03:56:22.505Z,90.74
2023-12-02T03:58:51.965Z,90.76
2023-12-02T04:01:20.133Z,90.47
2023-12-02T04:03:48.482Z,90.44
2023-12-02T04:06:16.570Z,89.98
2023-12-02T04:08:45.205Z,90.09
2023-12-02T04:11:13.319Z,90.05
2023-12-02T04:13:41.371Z,89.70
2023-12-02T04:16:10.062Z,89.53
2023-12-02T04:18:38.305Z,89.64
2023-12-02T04:21:09.573Z,89.45
2023-12-02T04:23:38.372Z,89.11
2023-12-02T04:26:09.626Z,89.04
2023-12-02T04:28:38.504Z,89.76
2023-12-02T04:31:06.723Z,91.43
2023-12-02T04:33:34.880Z,91.75
2023-12-02T04:36:03.219Z,90.85
2023-12-02T04:38:31.288Z,91.51
2023-12-02T04:40:59.350Z,92.76
2023-12-02T04:43:27.310Z,93.72
2023-12-02T04:45:55.319Z,93.70
2023-12-02T04:48:23.879Z,92.85
2023-12-02T04:50:51.933Z,92.76
2023-12-02T04:53:21.224Z,92.04
2023-12-02T04:55:49.234Z,92.44
2023-12-02T04:58:17.192Z,92.33
2023-12-02T05:00:45.278Z,92.50
2023-12-02T05:03:18.589Z,92.06
2023-12-02T05:05:47.102Z,92.12
2023-12-02T05:08:15.356Z,92.05
2023-12-02T05:10:43.336Z,91.21
2023-12-02T05:13:11.461Z,91.50
2023-12-02T05:15:44.300Z,90.95
2023-12-02T05:18:13.326Z,90.35
2023-12-02T05:20:41.463Z,91.97
2023-12-02T05:23:09.524Z,92.93
2023-12-02T05:25:37.626Z,92.76
2023-12-02T05:28:05.803Z,92.48
2023-12-02T05:30:35.537Z,92.78
2023-12-02T05:33:03.977Z,93.12
2023-12-02T05:35:33.040Z,93.25
2023-12-02T05:38:01.301Z,92.63
2023-12-02T05:40:29.248Z,92.60
2023-12-02T05:42:57.255Z,93.11
2023-12-02T05:45:25.307Z,93.81
2023-12-02T05:47:53.386Z,93.84
2023-12-02T05:50:21.431Z,93.54
2023-12-02T05:52:49.578Z,92.02
2023-12-02T05:55:18.094Z,92.19
2023-12-02T05:57:46.117Z,92.24
2023-12-02T06:00:18.199Z,92.72
2023-12-02T06:02:46.800Z,92.89
2023-12-02T06:05:14.982Z,91.94
2023-12-02T06:07:43.107Z,91.27
2023-12-02T06:10:11.186Z,90.86
2023-12-02T06:12:39.251Z,90.93
2023-12-02T06:15:10.456Z,90.60
2023-12-02T06:17:40.126Z,90.86
2023-12-02T06:20:10.670Z,91.81
2023-12-02T06:22:38.871Z,91.24
2023-12-02T06:25:07.907Z,91.00
2023-12-02T06:27:36.097Z,90.31
2023-12-02T06:30:04.799Z,89.29
2023-12-02T06:32:32.939Z,89.25
2023-12-02T06:35:01.046Z,88.76
2023-12-02T06:37:29.036Z,88.39
2023-12-02T06:39:57.017Z,88.13
2023-12-02T06:42:25.053Z,87.90
2023-12-02T06:44:53.296Z,87.47
2023-12-02T06:47:21.323Z,87.61
2023-12-02T06:49:49.413Z,87.66
2023-12-02T06:52:17.352Z,87.45
2023-12-02T06:57:33.360Z,87.23
2023-12-02T07:00:01.629Z,87.44
2023-12-02T07:02:29.869Z,87.20
2023-12-02T07:04:58.178Z,87.08
2023-12-02T07:07:26.146Z,86.87
2023-12-02T07:09:54.094Z,88.54
2023-12-02T07:12:22.151Z,90.11
2023-12-02T07:14:50.288Z,90.48
2023-12-02T07:17:18.244Z,90.24
2023-12-02T07:19:46.586Z,90.21
2023-12-02T07:22:15.108Z,90.72
2023-12-02T07:24:43.106Z,90.04
2023-12-02T07:27:11.191Z,89.67
2023-12-02T07:32:10.841Z,90.95
2023-12-02T07:34:38.882Z,90.49
2023-12-02T07:37:06.949Z,89.93
2023-12-02T07:39:35.841Z,89.83
2023-12-02T07:42:04.355Z,90.94
2023-12-02T07:44:32.260Z,91.81
2023-12-02T07:47:00.291Z,91.29
2023-12-02T07:49:28.330Z,89.95
2023-12-02T07:51:56.309Z,90.08
2023-12-02T07:54:24.385Z,89.89
2023-12-02T07:56:52.376Z,89.89
2023-12-02T07:59:20.362Z,89.94
2023-12-02T08:01:48.488Z,89.74
2023-12-02T08:04:16.601Z,89.19
2023-12-02T08:06:44.675Z,89.88
2023-12-02T08:09:16.234Z,90.03
2023-12-02T08:11:44.619Z,89.88
2023-12-02T08:14:12.729Z,89.08
2023-12-02T08:16:40.749Z,88.50
2023-12-02T08:19:08.739Z,87.51
2023-12-02T08:21:36.829Z,89.45
2023-12-02T08:24:05.562Z,89.78
2023-12-02T08:26:33.587Z,90.62
2023-12-02T08:29:01.728Z,90.81
2023-12-02T08:31:29.909Z,90.70
2023-12-02T08:33:57.971Z,91.14
2023-12-02T08:36:25.962Z,90.95
2023-12-02T08:38:54.007Z,90.89
2023-12-02T08:41:22.101Z,91.31
2023-12-02T08:43:50.099Z,89.69
2023-12-02T08:46:18.786Z,89.50
2023-12-02T08:48:47.398Z,89.61
2023-12-02T08:51:15.517Z,88.54
2023-12-02T08:53:43.480Z,88.84
2023-12-02T08:56:11.791Z,89.77
2023-12-02T08:58:40.038Z,89.84
2023-12-02T09:01:08.281Z,90.31
2023-12-02T09:03:36.569Z,89.96
2023-12-02T09:06:04.965Z,90.08
2023-12-02T09:08:33.065Z,89.26
2023-12-02T09:11:01.130Z,89.11
2023-12-02T09:13:29.010Z,87.33
2023-12-02T09:15:56.955Z,87.15
2023-12-02T09:18:37.700Z,87.16
2023-12-02T09:21:23.127Z,88.16
2023-12-02T09:23:52.605Z,87.52
2023-12-02T09:26:40.631Z,89.28
2023-12-02T09:29:10.012Z,88.90
2023-12-02T09:31:38.015Z,88.72
2023-12-02T09:34:41.291Z,88.92
2023-12-02T09:38:01.024Z,89.36
2023-12-02T09:41:01.161Z,89.08
2023-12-02T09:43:43.483Z,90.87
2023-12-02T09:46:29.597Z,89.26
2023-12-02T09:49:23.480Z,88.40
2023-12-02T09:52:13.742Z,88.70
2023-12-02T09:54:53.646Z,89.71
2023-12-02T09:57:54.098Z,89.27
2023-12-02T10:00:50.210Z,89.10
2023-12-02T10:03:45.958Z,89.93
2023-12-02T10:06:51.633Z,91.26
2023-12-02T10:09:42.114Z,91.52
2023-12-02T10:12:47.378Z,91.22
2023-12-02T10:15:17.938Z,91.74
2023-12-02T10:18:09.582Z,92.35
2023-12-02T10:20:40.951Z,92.69
2023-12-02T10:23:28.292Z,93.03
2023-12-02T10:26:25.065Z,92.58
2023-12-02T10:29:47.670Z,91.35
2023-12-02T10:32:38.445Z,92.10
2023-12-02T10:35:23.925Z,92.27
2023-12-02T10:38:26.629Z,92.45
2023-12-02T10:41:21.926Z,92.35
2023-12-02T10:43:57.927Z,93.05
2023-12-02T10:46:26.930Z,91.97
2023-12-02T10:48:56.297Z,91.78
2023-12-02T10:51:25.040Z,90.85
2023-12-02T10:53:56.021Z,90.81
2023-12-02T10:56:27.408Z,90.80
2023-12-02T10:58:56.489Z,91.68
2023-12-02T11:01:33.567Z,92.77
2023-12-02T11:04:34.620Z,92.83
2023-12-02T11:07:07.026Z,90.82
2023-12-02T11:09:51.501Z,91.09
2023-12-02T11:12:32.931Z,91.19
2023-12-02T11:15:10.750Z,91.35
2023-12-02T11:17:47.720Z,90.81
2023-12-02T11:20:50.478Z,90.97
2023-12-02T11:23:30.540Z,90.08
2023-12-02T11:26:21.773Z,90.16
2023-12-02T11:29:01.681Z,91.34
2023-12-02T11:31:58.861Z,90.86
2023-12-02T11:34:48.156Z,89.81
2023-12-02T11:37:59.113Z,89.75
2023-12-02T11:40:46.130Z,90.85
2023-12-02T11:43:57.942Z,91.31
2023-12-02T11:46:31.951Z,92.45
2023-12-02T11:49:20.148Z,91.04
2023-12-02T11:52:15.831Z,89.95
2023-12-02T11:55:07.779Z,90.66
2023-12-02T11:58:07.426Z,90.76
2023-12-02T12:01:03.619Z,91.61
2023-12-02T12:04:29.566Z,91.28
2023-12-02T12:07:24.836Z,90.37
2023-12-02T12:10:20.529Z,90.95
2023-12-02T12:12:52.555Z,91.11
2023-12-02T12:15:20.598Z,92.13
2023-12-02T12:17:48.723Z,92.49
2023-12-02T12:20:19.451Z,91.32
2023-12-02T12:22:47.662Z,90.82
2023-12-02T12:25:16.075Z,90.98
2023-12-02T12:27:44.864Z,91.47
2023-12-02T12:30:13.197Z,91.36
2023-12-02T12:32:41.518Z,92.36
2023-12-02T12:35:12.714Z,93.63
2023-12-02T12:37:45.550Z,93.81
2023-12-02T12:40:13.782Z,93.65
2023-12-02T12:42:49.773Z,94.04
2023-12-02T12:45:18.697Z,94.09
2023-12-02T12:47:47.295Z,93.64
2023-12-02T12:50:17.197Z,92.70
2023-12-02T12:52:52.959Z,92.48
2023-12-02T12:55:25.612Z,91.66
2023-12-02T12:57:59.524Z,91.69
2023-12-02T13:00:32.500Z,93.23
2023-12-02T13:03:44.963Z,92.36
2023-12-02T13:06:33.055Z,93.04
2023-12-02T13:09:07.635Z,93.38
2023-12-02T13:11:52.521Z,94.68
2023-12-02T13:14:27.944Z,95.65
2023-12-02T13:16:56.935Z,96.02
2023-12-02T13:19:27.765Z,95.96
2023-12-02T13:22:01.779Z,95.10
2023-12-02T13:24:41.237Z,94.96
2023-12-02T13:27:43.763Z,95.64
2023-12-02T13:30:12.034Z,95.92
2023-12-02T13:32:45.451Z,96.42
2023-12-02T13:35:16.425Z,97.11
2023-12-02T13:38:29.670Z,98.05
2023-12-02T13:41:19.346Z,98.00
2023-12-02T13:43:55.146Z,98.19
2023-12-02T13:46:34.519Z,99.11
2023-12-02T13:49:25.043Z,99.59
2023-12-02T13:52:10.629Z,100.00
2023-12-02T13:55:31.410Z,100.00
2023-12-02T13:58:13.953Z,100.00
2023-12-02T14:01:02.409Z,100.00
2023-12-02T14:04:02.021Z,100.00
2023-12-02T14:07:16.520Z,100.00
2023-12-02T14:09:44.913Z,100.00
2023-12-02T14:13:04.614Z,100.00
2023-12-02T14:16:11.846Z,100.00
2023-12-02T14:19:21.520Z,100.00
2023-12-02T14:22:12.790Z,100.00
2023-12-02T14:25:15.190Z,100.00
2023-12-02T14:28:24.310Z,100.00
2023-12-02T14:31:33.473Z,100.00
2023-12-02T14:34:26.920Z,100.00
2023-12-02T14:37:30.415Z,100.00
2023-12-02T14:40:18.540Z,100.00
2023-12-02T14:43:27.295Z,100.00
2023-12-02T14:45:58.656Z,100.00
2023-12-02T14:48:29.528Z,100.00
2023-12-02T14:51:03.202Z,100.00
2023-12-02T14:53:36.064Z,100.00
2023-12-02T14:56:29.166Z,100.00
2023-12-02T14:59:00.600Z,100.00
2023-12-02T15:01:40.073Z,100.00
2023-12-02T15:04:09.270Z,100.00
2023-12-02T15:06:41.551Z,100.00
2023-12-02T15:09:19.941Z,100.00
2023-12-02T15:11:48.108Z,100.00
2023-12-02T15:14:20.294Z,100.00
2023-12-02T15:16:48.933Z,100.00
2023-12-02T15:19:18.006Z,100.00
2023-12-02T15:22:17.386Z,100.00
2023-12-02T15:24:45.634Z,100.00
2023-12-02T15:27:13.748Z,100.00
2023-12-02T15:29:41.987Z,100.00
2023-12-02T15:32:10.464Z,100.00
2023-12-02T15:34:39.690Z,100.00
2023-12-02T15:37:07.787Z,100.00
2023-12-02T15:39:35.885Z,100.00
2023-12-02T15:42:05.056Z,100.00
2023-12-02T15:44:46.994Z,100.00
2023-12-02T15:47:15.634Z,100.00
2023-12-02T15:49:43.656Z,100.00
2023-12-02T15:52:12.113Z,100.00
2023-12-02T15:54:42.580Z,100.00
2023-12-02T15:57:11.257Z,100.00
2023-12-02T15:59:39.440Z,100.00
2023-12-02T16:02:07.495Z,100.00
2023-12-02T16:04:37.689Z,100.00
2023-12-02T16:07:11.782Z,100.00
2023-12-02T16:09:47.503Z,100.00
2023-12-02T16:12:19.249Z,100.00
2023-12-02T16:14:49.201Z,100.00
2023-12-02T16:17:17.862Z,100.00
2023-12-02T16:19:48.624Z,100.00
2023-12-02T16:22:17.748Z,100.00
2023-12-02T16:24:50.850Z,100.00
2023-12-02T16:27:19.353Z,100.00
2023-12-02T16:29:52.328Z,100.00
2023-12-02T16:32:20.824Z,100.00
2023-12-02T16:34:48.984Z,100.00
2023-12-02T16:37:17.482Z,100.00
2023-12-02T16:39:50.293Z,100.00
2023-12-02T16:42:18.374Z,100.00
2023-12-02T16:44:46.404Z,100.00
2023-12-02T16:47:39.998Z,100.00
2023-12-02T16:50:16.416Z,100.00
2023-12-02T16:52:55.030Z,100.00
2023-12-02T16:55:28.953Z,100.00
2023-12-02T16:57:57.696Z,100.00
2023-12-02T17:00:37.689Z,100.00
2023-12-02T17:03:07.468Z,100.00
2023-12-02T17:05:35.839Z,100.00
2023-12-02T17:08:08.605Z,100.00
2023-12-02T17:10:45.696Z,100.00
2023-12-02T17:13:44.914Z,100.00
2023-12-02T17:16:32.567Z,100.00
2023-12-02T17:19:16.843Z,100.00
2023-12-02T17:21:57.094Z,100.00
2023-12-02T17:24:43.808Z,100.00
2023-12-02T17:27:20.622Z,100.00
2023-12-02T17:29:48.886Z,100.00
2023-12-02T17:32:16.941Z,100.00
2023-12-02T17:34:45.014Z,100.00
2023-12-02T17:37:13.210Z,100.00
2023-12-02T17:39:41.247Z,100.00
2023-12-02T17:42:09.502Z,100.00
2023-12-02T17:44:37.703Z,100.00
2023-12-02T17:47:06.059Z,100.00
2023-12-02T17:49:34.175Z,100.00
2023-12-02T17:52:04.214Z,100.00
2023-12-02T17:54:32.368Z,100.00
2023-12-02T17:57:00.397Z,100.00
2023-12-02T17:59:28.413Z,100.00
2023-12-02T18:01:59.721Z,100.00
2023-12-02T18:04:28.071Z,100.00
2023-12-02T18:06:56.587Z,100.00
2023-12-02T18:09:24.722Z,100.00
2023-12-02T18:11:54.900Z,100.00
2023-12-02T18:14:23.251Z,100.00
2023-12-02T18:16:51.277Z,100.00
2023-12-02T18:19:19.777Z,100.00
2023-12-02T18:21:51.007Z,100.00
2023-12-02T18:24:19.159Z,100.00
2023-12-02T18:26:47.295Z,100.00
2023-12-02T18:29:15.349Z,100.00
2023-12-02T18:31:43.871Z,100.00
2023-12-02T18:34:18.088Z,100.00
2023-12-02T18:36:48.992Z,100.00
2023-12-02T18:39:17.371Z,100.00
2023-12-02T18:41:46.996Z,100.00
2023-12-02T18:44:15.050Z,100.00
2023-12-02T18:46:43.096Z,100.00
2023-12-02T18:49:11.110Z,100.00
2023-12-02T18:51:39.431Z,100.00
2023-12-02T18:54:31.749Z,100.00
2023-12-02T18:57:00.114Z,100.00
2023-12-02T18:59:28.520Z,100.00
2023-12-02T19:01:56.590Z,100.00
2023-12-02T19:04:24.714Z,100.00
2023-12-02T19:06:52.755Z,100.00
2023-12-02T19:09:20.874Z,100.00
2023-12-02T19:11:50.593Z,100.00
2023-12-02T19:14:18.771Z,100.00
2023-12-02T19:16:47.157Z,100.00
2023-12-02T19:19:15.573Z,100.00
2023-12-02T19:21:43.817Z,100.00
2023-12-02T19:24:12.275Z,100.00
2023-12-02T19:26:40.291Z,100.00
2023-12-02T19:29:08.428Z,100.00
2023-12-02T19:31:53.161Z,100.00
2023-12-02T19:34:21.291Z,100.00
2023-12-02T19:36:49.443Z,100.00
2023-12-02T19:39:17.651Z,100.00
2023-12-02T19:41:46.836Z,100.00
2023-12-02T19:44:15.821Z,100.00
2023-12-02T19:46:46.035Z,100.00
2023-12-02T19:49:14.170Z,100.00
2023-12-02T19:51:42.357Z,100.00
2023-12-02T19:54:10.591Z,100.00
2023-12-02T19:56:38.749Z,100.00
2023-12-02T19:59:06.727Z,100.00
2023-12-02T20:01:35.530Z,100.00
2023-12-02T20:04:03.716Z,100.00
2023-12-02T20:06:31.884Z,100.00
2023-12-02T20:08:59.958Z,100.00
2023-12-02T20:11:43.948Z,100.00
2023-12-02T20:14:15.036Z,100.00
2023-12-02T20:16:43.253Z,100.00
2023-12-02T20:19:14.279Z,100.00
2023-12-02T20:21:42.489Z,100.00
2023-12-02T20:24:10.733Z,100.00
2023-12-02T20:26:39.413Z,100.00
2023-12-02T20:29:08.301Z,100.00
2023-12-02T20:31:36.270Z,100.00
2023-12-02T20:34:04.835Z,100.00
2023-12-02T20:36:32.889Z,100.00
2023-12-02T20:39:03.888Z,100.00
2023-12-02T20:41:33.518Z,100.00
2023-12-02T20:44:01.938Z,100.00
2023-12-02T20:46:30.418Z,100.00
2023-12-02T20:48:59.148Z,100.00
2023-12-02T20:51:27.302Z,99.41
2023-12-02T20:53:55.299Z,99.50
2023-12-02T20:56:23.273Z,99.35
2023-12-02T20:58:51.315Z,99.82
2023-12-02T21:01:19.432Z,99.97
2023-12-02T21:03:48.941Z,99.97
2023-12-02T21:06:17.226Z,100.00
2023-12-02T21:08:45.376Z,99.61
2023-12-02T21:11:13.390Z,99.53
2023-12-02T21:13:42.570Z,99.07
2023-12-02T21:16:10.987Z,99.23
2023-12-02T21:18:39.234Z,99.46
2023-12-02T21:21:07.757Z,99.77
2023-12-02T21:23:35.733Z,99.19
2023-12-02T21:26:03.969Z,98.65
2023-12-02T21:28:32.998Z,99.61
2023-12-02T21:31:02.985Z,99.15
2023-12-02T21:33:36.477Z,99.10
2023-12-02T21:36:05.312Z,98.62
2023-12-02T21:38:37.470Z,98.12
2023-12-02T21:41:08.937Z,98.60
2023-12-02T21:43:39.067Z,98.27
2023-12-02T21:46:30.820Z,97.72
2023-12-02T21:49:06.486Z,98.51
2023-12-02T21:51:51.445Z,98.33
2023-12-02T21:54:23.276Z,98.59
2023-12-02T21:57:31.126Z,98.81
2023-12-02T22:04:44.821Z,98.50
2023-12-02T22:07:35.763Z,98.18
2023-12-02T22:10:35.798Z,98.00
2023-12-02T22:13:31.970Z,98.56
2023-12-02T22:16:11.153Z,99.20
2023-12-02T22:18:57.982Z,98.79
2023-12-02T22:21:35.394Z,98.70
2023-12-02T22:24:25.603Z,98.63
2023-12-02T22:27:10.860Z,99.27
2023-12-02T22:29:47.022Z,99.67
2023-12-02T22:32:28.105Z,99.34
2023-12-02T22:34:57.185Z,99.61
2023-12-02T22:37:27.728Z,99.55
2023-12-02T22:39:56.409Z,99.19
2023-12-02T22:42:33.612Z,98.89
2023-12-02T22:45:09.155Z,98.55
2023-12-02T22:47:37.686Z,98.58
2023-12-02T22:50:08.313Z,98.32
2023-12-02T22:53:00.012Z,97.86
2023-12-02T22:56:17.733Z,98.27
2023-12-02T22:59:35.125Z,98.58
2023-12-02T23:02:09.737Z,98.25
2023-12-02T23:04:47.090Z,98.48
2023-12-02T23:07:44.684Z,98.67
2023-12-02T23:10:36.185Z,98.32
2023-12-02T23:13:33.326Z,98.78
2023-12-02T23:16:39.624Z,99.34
2023-12-02T23:19:27.770Z,99.41
2023-12-02T23:21:56.753Z,99.09
2023-12-02T23:24:24.853Z,99.21
2023-12-02T23:26:52.939Z,99.85
2023-12-02T23:29:21.001Z,99.22
2023-12-02T23:31:48.996Z,99.35
2023-12-02T23:34:17.113Z,99.50
2023-12-02T23:36:45.304Z,99.98
2023-12-02T23:39:33.842Z,100.00
2023-12-02T23:42:03.354Z,100.00
2023-12-02T23:44:45.002Z,100.00
2023-12-02T23:47:18.202Z,100.00
2023-12-02T23:49:46.250Z,100.00
2023-12-02T23:52:14.956Z,100.00
2023-12-02T23:54:43.075Z,100.00
2023-12-02T23:57:11.780Z,100.00
2023-12-02T23:59:40.844Z,100.00
